Airfield :
LOGIN :

Register | Disclaimer

   EN    FR    IT 

 










Legend :    VFR   Marginal VFR   IFR   Intensive IFR   Very Intensive IFR
Visi :
Ceiling :
>= 8 km
>= 3000ft
5 to 8 km
1000 to 3000 ft
1500m to 5 km
500 to 1000 ft
800 to 1500m
200 to 500 ft
< 800m
< 200 ft
Symbols :   Thunderstorms  Fog  Heavy snow  Heavy precipitations  Wind > 20 kt
SIGMETs :     Misc.  Thunderstorms  Icing  Turbulence  Mountain Waves  Volcanic Ashes






- Airport Elevation : 233 ft
- IATA code : REU


LERS - Reus Tarragona

CURRENT METAR :
  • 061800Z 06004KT 9999 FEW040 SCT050 09/02 Q1026

EXPIRED METARs :
  • 061730Z 06007KT 030V110 9999 FEW040 BKN050 10/02 Q1026
  • 061700Z 08008KT 9999 FEW040 BKN050 11/01 Q1026
  • 061630Z 08007KT 050V120 9999 FEW040 BKN050 11/01 Q1026
  • 061600Z 07008KT 030V100 9999 FEW040 BKN050 11/01 Q1026
  • 061530Z 08006KT 040V110 9999 SCT040 12/01 Q1026

TAF TAF LERS
Valid from the 06 at 15:00 until the 07 at 15:00 UTC


061400Z 0615/0715 VRB04KT 9999 FEW030 BKN050 TX12/0713Z TN03/0706Z
TEMPO 0615/0618 04010KT
PROB40
TEMPO 0619/0623 RA FEW030TCU



MET'MAP, your aeronautical weather chart ! - Copyright ORBIFLY December 2007 - Disclaimer

ORBIFLY MET'MAP TEAM :

Programming & Development : Alexandra Zaïnal
Original concept : Baudouin d'Aumeries
Technical & hardware support : Manuel Goepfert
Assistance : Marc-Olivier Méhu




SOURCES & CREDITS :

   NOAA